createdAt,value
2022-08-11T00:00:09.360Z,19.86
2022-08-11T00:02:41.434Z,19.85
2022-08-11T00:05:13.892Z,19.78
2022-08-11T00:07:48.745Z,19.78
2022-08-11T00:10:20.915Z,19.71
2022-08-11T00:12:58.685Z,19.79
2022-08-11T00:15:31.185Z,19.76
2022-08-11T00:18:02.829Z,19.61
2022-08-11T00:20:35.537Z,19.54
2022-08-11T00:23:09.110Z,19.51
2022-08-11T00:25:42.884Z,19.60
2022-08-11T00:28:32.401Z,19.43
2022-08-11T00:31:05.765Z,19.49
2022-08-11T00:33:44.168Z,19.33
2022-08-11T00:36:21.995Z,19.27
2022-08-11T00:38:57.124Z,19.25
2022-08-11T00:41:35.975Z,19.16
2022-08-11T00:44:17.880Z,19.13
2022-08-11T00:46:59.042Z,19.08
2022-08-11T00:49:46.155Z,19.01
2022-08-11T00:52:25.998Z,19.13
2022-08-11T00:55:20.553Z,18.97
2022-08-11T00:58:26.379Z,18.97
2022-08-11T01:01:13.254Z,18.95
2022-08-11T01:04:03.280Z,18.93
2022-08-11T01:06:55.640Z,18.91
2022-08-11T01:09:36.539Z,18.86
2022-08-11T01:12:35.763Z,18.76
2022-08-11T01:15:56.012Z,18.78
2022-08-11T01:18:58.594Z,18.70
2022-08-11T01:22:09.793Z,18.64
2022-08-11T01:25:04.021Z,18.60
2022-08-11T01:28:11.741Z,18.46
2022-08-11T01:31:13.505Z,18.34
2022-08-11T01:34:28.009Z,18.22
2022-08-11T01:37:18.788Z,18.26
2022-08-11T01:40:17.748Z,18.13
2022-08-11T01:43:36.790Z,18.12
2022-08-11T01:46:12.727Z,18.11
2022-08-11T01:48:46.066Z,18.09
2022-08-11T01:51:25.756Z,18.10
2022-08-11T01:54:06.876Z,18.11
2022-08-11T01:56:47.593Z,18.11
2022-08-11T01:59:23.367Z,17.94
2022-08-11T02:02:44.922Z,17.96
2022-08-11T02:05:26.120Z,17.98
2022-08-11T02:08:02.914Z,18.08
2022-08-11T02:11:04.984Z,17.90
2022-08-11T02:13:44.932Z,17.90
2022-08-11T02:16:30.103Z,17.92
2022-08-11T02:19:26.663Z,18.02
2022-08-11T02:22:15.554Z,17.85
2022-08-11T02:24:52.619Z,17.86
2022-08-11T02:27:28.687Z,17.74
2022-08-11T02:30:07.650Z,17.65
2022-08-11T02:32:54.817Z,17.64
2022-08-11T02:35:36.912Z,17.53
2022-08-11T02:38:17.421Z,17.68
2022-08-11T02:40:52.283Z,17.52
2022-08-11T02:43:50.983Z,17.50
2022-08-11T02:46:30.340Z,17.68
2022-08-11T02:49:20.736Z,17.72
2022-08-11T02:52:08.860Z,17.44
2022-08-11T02:54:47.535Z,17.37
2022-08-11T02:57:25.343Z,17.29
2022-08-11T03:00:07.646Z,17.36
2022-08-11T03:02:55.981Z,17.11
2022-08-11T03:05:34.663Z,17.13
2022-08-11T03:08:39.976Z,17.08
2022-08-11T03:11:27.756Z,17.07
2022-08-11T03:14:23.558Z,16.93
2022-08-11T03:17:03.374Z,17.04
2022-08-11T03:19:39.805Z,16.90
2022-08-11T03:22:20.024Z,17.04
2022-08-11T03:25:03.493Z,17.07
2022-08-11T03:27:51.594Z,17.01
2022-08-11T03:30:26.753Z,17.02
2022-08-11T03:33:23.708Z,16.92
2022-08-11T03:36:14.089Z,16.95
2022-08-11T03:39:10.767Z,17.00
2022-08-11T03:42:01.133Z,16.91
2022-08-11T03:45:04.211Z,17.01
2022-08-11T03:47:55.257Z,16.87
2022-08-11T03:51:01.174Z,16.83
2022-08-11T03:53:50.748Z,16.97
2022-08-11T03:56:47.309Z,16.69
2022-08-11T03:59:42.663Z,16.87
2022-08-11T04:02:30.278Z,16.74
2022-08-11T04:05:33.847Z,16.60
2022-08-11T04:08:34.683Z,16.65
2022-08-11T04:11:23.498Z,16.59
2022-08-11T04:14:25.614Z,16.59
2022-08-11T04:17:22.861Z,16.73
2022-08-11T04:20:32.624Z,16.76
2022-08-11T04:24:13.119Z,16.72
2022-08-11T04:26:39.450Z,16.72
2022-08-11T04:29:21.859Z,16.81
2022-08-11T04:32:10.754Z,16.79
2022-08-11T04:34:51.217Z,16.80
2022-08-11T04:37:51.375Z,16.75
2022-08-11T04:40:50.218Z,16.60
2022-08-11T04:44:02.486Z,16.68
2022-08-11T04:46:59.229Z,16.73
2022-08-11T04:49:58.677Z,16.63
2022-08-11T04:53:11.700Z,16.48
2022-08-11T04:56:19.032Z,16.60
2022-08-11T04:59:20.259Z,16.62
2022-08-11T05:02:17.743Z,16.51
2022-08-11T05:05:18.696Z,16.55
2022-08-11T05:08:21.933Z,16.73
2022-08-11T05:11:06.285Z,16.75
2022-08-11T05:13:50.230Z,16.88
2022-08-11T05:16:43.104Z,16.95
2022-08-11T05:19:32.080Z,17.09
2022-08-11T05:22:14.864Z,17.21
2022-08-11T05:25:01.979Z,17.20
2022-08-11T05:27:51.622Z,17.21
2022-08-11T05:30:34.765Z,17.28
2022-08-11T05:33:24.503Z,17.41
2022-08-11T05:36:04.956Z,17.59
2022-08-11T05:38:51.400Z,17.67
2022-08-11T05:41:36.217Z,17.76
2022-08-11T05:44:22.246Z,17.82
2022-08-11T05:47:05.998Z,17.91
2022-08-11T05:49:51.754Z,18.00
2022-08-11T05:52:38.369Z,18.08
2022-08-11T05:55:26.074Z,18.21
2022-08-11T05:57:59.693Z,18.29
2022-08-11T06:00:29.988Z,18.35
2022-08-11T06:03:04.175Z,18.39
2022-08-11T06:05:43.841Z,18.47
2022-08-11T06:08:15.501Z,18.54
2022-08-11T06:10:47.045Z,18.57
2022-08-11T06:13:19.214Z,18.63
2022-08-11T06:15:52.102Z,18.68
2022-08-11T06:18:22.798Z,18.76
2022-08-11T06:20:58.156Z,18.84
2022-08-11T06:23:36.531Z,18.94
2022-08-11T06:26:12.714Z,19.07
2022-08-11T06:28:45.263Z,19.23
2022-08-11T06:31:17.113Z,19.54
2022-08-11T06:34:01.826Z,19.84
2022-08-11T06:36:38.899Z,20.15
2022-08-11T06:39:20.435Z,20.48
2022-08-11T06:41:55.976Z,20.67
2022-08-11T06:44:33.028Z,20.99
2022-08-11T06:47:11.142Z,21.46
2022-08-11T06:49:59.648Z,21.97
2022-08-11T06:52:36.680Z,22.31
2022-08-11T06:55:56.029Z,22.85
2022-08-11T06:58:14.352Z,23.24
2022-08-11T07:00:45.037Z,23.61
2022-08-11T07:03:19.747Z,23.99
2022-08-11T07:05:55.147Z,24.36
2022-08-11T07:09:19.230Z,24.67
2022-08-11T07:12:17.893Z,25.03
2022-08-11T07:15:05.766Z,25.34
2022-08-11T07:17:40.861Z,25.76
2022-08-11T07:20:26.004Z,26.23
2022-08-11T07:23:11.657Z,26.37
2022-08-11T07:25:56.970Z,26.72
2022-08-11T07:28:44.704Z,26.82
2022-08-11T07:31:17.870Z,26.98
2022-08-11T07:34:05.919Z,27.30
2022-08-11T07:36:43.047Z,27.26
2022-08-11T07:39:19.898Z,27.55
2022-08-11T07:41:50.343Z,27.44
2022-08-11T07:44:30.713Z,27.69
2022-08-11T07:47:16.325Z,27.85
2022-08-11T07:50:01.127Z,27.70
2022-08-11T07:52:34.250Z,27.99
2022-08-11T07:55:06.078Z,28.36
2022-08-11T07:58:14.304Z,28.27
2022-08-11T08:01:01.191Z,28.04
2022-08-11T08:03:54.400Z,28.19
2022-08-11T08:06:38.445Z,28.17
2022-08-11T08:09:23.407Z,28.44
2022-08-11T08:12:05.841Z,28.34
2022-08-11T08:14:49.375Z,28.22
2022-08-11T08:17:34.990Z,28.47
2022-08-11T08:20:07.494Z,28.54
2022-08-11T08:22:40.083Z,28.17
2022-08-11T08:25:12.184Z,28.34
2022-08-11T08:27:43.781Z,28.69
2022-08-11T08:30:27.975Z,28.97
2022-08-11T08:33:01.451Z,29.02
2022-08-11T08:35:33.076Z,28.31
2022-08-11T08:38:03.694Z,28.58
2022-08-11T08:40:34.113Z,28.17
2022-08-11T08:43:10.403Z,28.24
2022-08-11T08:45:43.008Z,28.77
2022-08-11T08:48:20.879Z,28.89
2022-08-11T08:51:12.044Z,28.98
2022-08-11T08:53:52.627Z,28.46
2022-08-11T08:56:31.616Z,28.34
2022-08-11T08:59:03.991Z,27.96
2022-08-11T09:01:39.831Z,27.97
2022-08-11T09:04:17.441Z,27.62
2022-08-11T09:06:52.353Z,27.82
2022-08-11T09:09:24.477Z,28.07
2022-08-11T09:11:56.196Z,28.06
2022-08-11T09:14:48.057Z,28.02
2022-08-11T09:17:18.206Z,27.57
2022-08-11T09:19:56.470Z,28.15
2022-08-11T09:22:39.812Z,27.82
2022-08-11T09:25:23.451Z,27.71
2022-08-11T09:27:53.952Z,27.48
2022-08-11T09:30:26.088Z,27.89
2022-08-11T09:33:00.587Z,28.31
2022-08-11T09:35:36.945Z,28.25
2022-08-11T09:38:21.632Z,28.38
2022-08-11T09:40:57.027Z,28.15
2022-08-11T09:43:40.422Z,27.84
2022-08-11T09:46:11.819Z,28.27
2022-08-11T09:48:45.105Z,28.09
2022-08-11T09:51:18.795Z,27.90
2022-08-11T09:54:04.044Z,28.16
2022-08-11T09:56:47.477Z,28.33
2022-08-11T09:59:17.543Z,28.31
2022-08-11T10:01:50.560Z,28.41
2022-08-11T10:04:23.425Z,28.63
2022-08-11T10:07:04.798Z,28.80
2022-08-11T10:09:41.187Z,29.31
2022-08-11T10:12:14.036Z,29.39
2022-08-11T10:15:00.356Z,29.20
2022-08-11T10:17:33.705Z,29.22
2022-08-11T10:20:07.903Z,29.22
2022-08-11T10:22:53.163Z,29.01
2022-08-11T10:25:36.380Z,29.40
2022-08-11T10:28:28.500Z,29.04
2022-08-11T10:31:12.572Z,29.19
2022-08-11T10:33:59.261Z,29.69
2022-08-11T10:36:30.337Z,29.37
2022-08-11T10:39:04.465Z,29.59
2022-08-11T10:42:08.268Z,29.74
2022-08-11T10:44:42.234Z,30.20
2022-08-11T10:47:27.722Z,30.83
2022-08-11T10:50:11.497Z,31.09
2022-08-11T10:52:55.444Z,31.22
2022-08-11T10:55:41.286Z,30.67
2022-08-11T10:58:25.203Z,30.85
2022-08-11T11:00:57.243Z,30.63
2022-08-11T11:03:29.301Z,31.07
2022-08-11T11:06:27.464Z,31.26
2022-08-11T11:09:04.486Z,31.50
2022-08-11T11:11:53.463Z,31.41
2022-08-11T11:14:46.300Z,31.49
2022-08-11T11:17:38.864Z,31.34
2022-08-11T11:20:34.531Z,31.48
2022-08-11T11:23:06.563Z,31.17
2022-08-11T11:26:06.842Z,31.28
2022-08-11T11:29:01.951Z,30.92
2022-08-11T11:31:47.106Z,31.03
2022-08-11T11:34:26.547Z,31.25
2022-08-11T11:36:59.417Z,31.30
2022-08-11T11:39:31.370Z,31.11
2022-08-11T11:42:04.389Z,31.47
2022-08-11T11:44:39.209Z,31.34
2022-08-11T11:47:10.393Z,31.73
2022-08-11T11:49:41.362Z,31.54
2022-08-11T11:52:11.846Z,31.89
2022-08-11T11:54:43.749Z,31.42
2022-08-11T11:57:29.997Z,31.54
2022-08-11T12:00:15.134Z,31.44
2022-08-11T12:02:45.893Z,31.40
2022-08-11T12:05:16.425Z,30.90
2022-08-11T12:08:12.505Z,31.00
2022-08-11T12:10:44.414Z,30.93
2022-08-11T12:13:28.051Z,31.20
2022-08-11T12:16:32.123Z,31.28
2022-08-11T12:18:56.584Z,31.76
2022-08-11T12:21:27.291Z,31.35
2022-08-11T12:24:11.664Z,31.32
2022-08-11T12:27:16.067Z,31.45
2022-08-11T12:29:48.130Z,31.31
2022-08-11T12:32:24.506Z,31.63
2022-08-11T12:34:57.049Z,31.56
2022-08-11T12:37:33.285Z,31.66
2022-08-11T12:40:42.729Z,31.69
2022-08-11T12:43:37.345Z,31.83
2022-08-11T12:46:11.332Z,31.48
2022-08-11T12:49:02.406Z,31.46
2022-08-11T12:52:13.062Z,31.38
2022-08-11T12:54:49.854Z,31.46
2022-08-11T12:57:36.572Z,31.19
2022-08-11T13:00:29.927Z,31.15
2022-08-11T13:03:13.254Z,30.64
2022-08-11T13:05:46.419Z,31.15
2022-08-11T13:08:17.646Z,31.10
2022-08-11T13:11:01.278Z,31.02
2022-08-11T13:13:53.994Z,31.14
2022-08-11T13:16:23.234Z,30.66
2022-08-11T13:18:54.469Z,30.51
2022-08-11T13:21:27.774Z,30.65
2022-08-11T13:24:01.294Z,30.35
2022-08-11T13:26:49.757Z,30.65
2022-08-11T13:29:25.282Z,30.51
2022-08-11T13:31:57.146Z,29.96
2022-08-11T13:34:31.353Z,30.11
2022-08-11T13:37:05.419Z,30.19
2022-08-11T13:39:37.530Z,30.36
2022-08-11T13:42:08.749Z,30.54
2022-08-11T13:44:40.765Z,30.95
2022-08-11T13:47:13.339Z,30.77
2022-08-11T13:49:44.665Z,30.54
2022-08-11T13:52:19.429Z,30.69
2022-08-11T13:54:53.367Z,30.27
2022-08-11T13:58:08.755Z,30.14
2022-08-11T14:00:25.112Z,30.26
2022-08-11T14:02:59.922Z,30.44
2022-08-11T14:05:34.288Z,30.55
2022-08-11T14:08:38.253Z,30.63
2022-08-11T14:12:21.149Z,30.16
2022-08-11T14:14:13.219Z,30.41
2022-08-11T14:16:46.033Z,30.51
2022-08-11T14:19:18.689Z,30.43
2022-08-11T14:22:07.100Z,30.00
2022-08-11T14:24:42.704Z,29.97
2022-08-11T14:28:30.117Z,29.99
2022-08-11T14:30:27.411Z,30.07
2022-08-11T14:32:59.924Z,30.10
2022-08-11T14:35:31.715Z,30.30
2022-08-11T14:38:05.456Z,30.19
2022-08-11T14:40:51.259Z,30.02
2022-08-11T14:44:12.586Z,30.08
2022-08-11T14:46:35.925Z,30.10
2022-08-11T14:49:05.980Z,30.27
2022-08-11T14:51:36.695Z,30.18
2022-08-11T14:54:19.192Z,30.24
2022-08-11T14:56:53.246Z,30.40
2022-08-11T14:59:26.132Z,29.85
2022-08-11T15:02:08.343Z,30.08
2022-08-11T15:04:38.267Z,30.12
2022-08-11T15:07:17.062Z,29.83
2022-08-11T15:12:44.282Z,30.13
2022-08-11T15:15:28.047Z,30.02
2022-08-11T15:17:59.923Z,29.93
2022-08-11T15:20:53.775Z,30.00
2022-08-11T15:23:36.383Z,30.19
2022-08-11T15:26:11.307Z,30.21
2022-08-11T15:29:01.833Z,30.04
2022-08-11T15:31:49.112Z,30.09
2022-08-11T15:34:35.370Z,30.24
2022-08-11T15:37:22.472Z,29.99
2022-08-11T15:40:07.405Z,30.14
2022-08-11T15:43:15.488Z,29.92
2022-08-11T15:45:55.113Z,29.86
2022-08-11T15:48:32.917Z,29.61
2022-08-11T15:51:10.103Z,29.36
2022-08-11T15:53:45.363Z,29.29
2022-08-11T15:56:28.931Z,29.32
2022-08-11T15:59:41.101Z,29.17
2022-08-11T16:02:20.233Z,29.18
2022-08-11T16:04:50.781Z,29.18
2022-08-11T16:07:26.740Z,29.18
2022-08-11T16:10:04.889Z,29.12
2022-08-11T16:12:38.752Z,29.09
2022-08-11T16:15:24.521Z,28.80
2022-08-11T16:18:02.192Z,28.84
2022-08-11T16:20:33.404Z,28.67
2022-08-11T16:23:07.547Z,28.61
2022-08-11T16:26:38.023Z,28.55
2022-08-11T16:28:30.415Z,28.60
2022-08-11T16:31:00.690Z,28.40
2022-08-11T16:33:50.379Z,28.36
2022-08-11T16:36:35.742Z,28.28
2022-08-11T16:39:06.269Z,28.39
2022-08-11T16:41:50.905Z,28.34
2022-08-11T16:44:37.595Z,28.28
2022-08-11T16:47:09.971Z,28.20
2022-08-11T16:49:52.204Z,28.22
2022-08-11T16:52:24.044Z,28.06
2022-08-11T16:54:54.583Z,28.02
2022-08-11T16:57:40.293Z,27.94
2022-08-11T17:00:13.238Z,27.90
2022-08-11T17:03:01.086Z,27.93
2022-08-11T17:05:53.983Z,27.89
2022-08-11T17:08:41.360Z,27.81
2022-08-11T17:11:34.594Z,27.72
2022-08-11T17:14:10.569Z,27.69
2022-08-11T17:16:42.889Z,27.78
2022-08-11T17:19:16.541Z,27.68
2022-08-11T17:22:03.761Z,27.59
2022-08-11T17:24:36.896Z,27.56
2022-08-11T17:27:08.919Z,27.53
2022-08-11T17:29:54.369Z,27.45
2022-08-11T17:32:55.938Z,27.44
2022-08-11T17:35:38.934Z,27.33
2022-08-11T17:38:15.354Z,27.34
2022-08-11T17:41:08.796Z,27.26
2022-08-11T17:43:52.091Z,27.32
2022-08-11T17:46:35.475Z,27.26
2022-08-11T17:49:07.819Z,27.25
2022-08-11T17:51:51.852Z,27.27
2022-08-11T17:54:38.301Z,27.20
2022-08-11T17:57:25.530Z,27.19
2022-08-11T17:59:57.922Z,27.11
2022-08-11T18:02:44.145Z,27.06
2022-08-11T18:05:15.539Z,26.97
2022-08-11T18:07:59.016Z,26.93
2022-08-11T18:10:46.289Z,26.81
2022-08-11T18:13:28.922Z,26.67
2022-08-11T18:16:11.444Z,26.60
2022-08-11T18:18:53.575Z,26.50
2022-08-11T18:21:37.298Z,26.45
2022-08-11T18:24:24.678Z,26.42
2022-08-11T18:27:12.258Z,26.30
2022-08-11T18:29:56.451Z,26.15
2022-08-11T18:32:49.618Z,26.08
2022-08-11T18:35:34.080Z,26.01
2022-08-11T18:38:18.421Z,25.97
2022-08-11T18:41:03.810Z,25.88
2022-08-11T18:43:52.698Z,25.83
2022-08-11T18:46:37.945Z,25.79
2022-08-11T18:49:27.229Z,25.64
2022-08-11T18:52:30.683Z,25.57
2022-08-11T18:55:16.016Z,25.43
2022-08-11T18:58:01.971Z,25.37
2022-08-11T19:00:49.611Z,25.29
2022-08-11T19:03:32.453Z,25.31
2022-08-11T19:06:39.463Z,25.29
2022-08-11T19:09:25.511Z,25.21
2022-08-11T19:12:10.269Z,25.17
2022-08-11T19:14:55.222Z,25.16
2022-08-11T19:17:44.370Z,25.14
2022-08-11T19:20:31.644Z,25.09
2022-08-11T19:23:15.445Z,25.09
2022-08-11T19:25:58.947Z,25.07
2022-08-11T19:28:41.924Z,25.02
2022-08-11T19:31:25.074Z,24.99
2022-08-11T19:34:11.399Z,24.88
2022-08-11T19:36:54.690Z,24.88
2022-08-11T19:39:39.362Z,24.85
2022-08-11T19:42:23.545Z,24.81
2022-08-11T19:45:06.268Z,24.79
2022-08-11T19:47:49.307Z,24.72
2022-08-11T19:50:37.816Z,24.73
2022-08-11T19:53:22.623Z,24.72
2022-08-11T19:56:08.230Z,24.71
2022-08-11T19:58:51.588Z,24.70
2022-08-11T20:01:33.887Z,24.66
2022-08-11T20:04:16.114Z,24.63
2022-08-11T20:07:01.438Z,24.54
2022-08-11T20:10:04.846Z,24.39
2022-08-11T20:12:47.553Z,24.29
2022-08-11T20:15:31.725Z,24.27
2022-08-11T20:18:15.209Z,24.19
2022-08-11T20:20:57.437Z,24.07
2022-08-11T20:23:42.883Z,23.99
2022-08-11T20:26:31.142Z,23.89
2022-08-11T20:29:15.473Z,23.83
2022-08-11T20:31:58.236Z,23.71
2022-08-11T20:34:40.562Z,23.61
2022-08-11T20:37:23.553Z,23.51
2022-08-11T20:40:11.072Z,23.42
2022-08-11T20:42:54.577Z,23.29
2022-08-11T20:45:37.666Z,23.27
2022-08-11T20:48:38.151Z,23.21
2022-08-11T20:51:21.288Z,23.26
2022-08-11T20:54:05.705Z,23.16
2022-08-11T20:56:51.512Z,23.04
2022-08-11T20:59:49.385Z,22.92
2022-08-11T21:02:39.659Z,22.86
2022-08-11T21:06:09.547Z,22.89
2022-08-11T21:08:25.756Z,22.83
2022-08-11T21:11:09.914Z,22.86
2022-08-11T21:13:58.927Z,22.81
2022-08-11T21:16:45.841Z,22.95
2022-08-11T21:19:59.688Z,23.02
2022-08-11T21:22:59.484Z,23.01
2022-08-11T21:25:52.339Z,23.00
2022-08-11T21:28:35.893Z,22.93
2022-08-11T21:31:22.519Z,22.78
2022-08-11T21:34:06.094Z,22.72
2022-08-11T21:36:49.436Z,22.60
2022-08-11T21:39:35.074Z,22.58
2022-08-11T21:42:18.425Z,22.55
2022-08-11T21:45:00.927Z,22.38
2022-08-11T21:47:47.160Z,22.35
2022-08-11T21:50:29.404Z,22.24
2022-08-11T21:53:13.727Z,22.15
2022-08-11T21:55:56.674Z,22.13
2022-08-11T21:58:40.468Z,22.06
2022-08-11T22:01:24.433Z,22.07
2022-08-11T22:04:09.999Z,22.07
2022-08-11T22:06:53.176Z,22.03
2022-08-11T22:09:35.319Z,21.94
2022-08-11T22:12:34.352Z,21.83
2022-08-11T22:15:18.895Z,21.75
2022-08-11T22:18:01.045Z,21.71
2022-08-11T22:20:47.501Z,21.69
2022-08-11T22:23:36.140Z,21.62
2022-08-11T22:26:19.407Z,21.57
2022-08-11T22:29:01.625Z,21.44
2022-08-11T22:31:45.558Z,21.52
2022-08-11T22:34:28.733Z,21.44
2022-08-11T22:37:27.587Z,21.48
2022-08-11T22:40:11.369Z,21.48
2022-08-11T22:42:53.675Z,21.51
2022-08-11T22:45:36.634Z,21.44
2022-08-11T22:48:20.736Z,21.45
2022-08-11T22:51:03.134Z,21.39
2022-08-11T22:53:55.179Z,21.33
2022-08-11T22:56:41.572Z,21.36
2022-08-11T22:59:24.629Z,21.27
2022-08-11T23:02:07.304Z,21.19
2022-08-11T23:04:53.264Z,21.19
2022-08-11T23:07:51.406Z,21.22
2022-08-11T23:10:37.701Z,21.20
2022-08-11T23:13:22.328Z,21.14
2022-08-11T23:16:05.563Z,21.11
2022-08-11T23:18:48.027Z,21.06
2022-08-11T23:21:31.497Z,21.05
2022-08-11T23:24:15.306Z,20.86
2022-08-11T23:27:01.029Z,20.91
2022-08-11T23:29:44.149Z,20.86
2022-08-11T23:32:26.491Z,20.89
2022-08-11T23:35:38.629Z,20.80
2022-08-11T23:38:14.843Z,20.66
2022-08-11T23:40:57.083Z,20.68
2022-08-11T23:43:41.920Z,20.57
2022-08-11T23:46:24.382Z,20.62
2022-08-11T23:49:10.899Z,20.56
2022-08-11T23:51:54.750Z,20.55
2022-08-11T23:54:37.680Z,20.62
2022-08-11T23:57:20.416Z,20.56
